createdAt,value
2018-04-06T00:00:29.356Z,0
2018-04-06T00:01:29.276Z,0
2018-04-06T00:02:29.366Z,0
2018-04-06T00:03:29.320Z,0
2018-04-06T00:04:29.372Z,0
2018-04-06T00:05:29.321Z,0
2018-04-06T00:06:29.373Z,0
2018-04-06T00:07:29.369Z,0
2018-04-06T00:08:29.256Z,0
2018-04-06T00:09:29.373Z,0
2018-04-06T00:10:29.286Z,0
2018-04-06T00:11:29.364Z,0
2018-04-06T00:12:29.324Z,0
2018-04-06T00:13:29.326Z,0
2018-04-06T00:14:29.254Z,0
2018-04-06T00:15:29.351Z,0
2018-04-06T00:16:29.263Z,0
2018-04-06T00:17:29.327Z,0
2018-04-06T00:18:29.327Z,0
2018-04-06T00:19:29.292Z,0
2018-04-06T00:20:29.374Z,0
2018-04-06T00:21:29.265Z,0
2018-04-06T00:22:29.257Z,0
2018-04-06T00:23:29.264Z,0
2018-04-06T00:24:29.296Z,0
2018-04-06T00:25:29.296Z,0
2018-04-06T00:26:29.388Z,0
2018-04-06T00:27:29.338Z,0
2018-04-06T00:28:29.288Z,0
2018-04-06T00:29:29.387Z,0
2018-04-06T00:30:29.358Z,0
2018-04-06T00:31:29.357Z,0
2018-04-06T00:32:29.391Z,0
2018-04-06T00:33:29.365Z,0
2018-04-06T00:34:29.338Z,0
2018-04-06T00:35:29.382Z,0
2018-04-06T00:36:29.389Z,0
2018-04-06T00:37:29.389Z,0
2018-04-06T00:38:29.307Z,0
2018-04-06T00:39:29.340Z,0
2018-04-06T00:40:29.344Z,0
2018-04-06T00:41:29.341Z,0
2018-04-06T00:42:29.389Z,0
2018-04-06T00:43:29.387Z,0
2018-04-06T00:44:29.395Z,0
2018-04-06T00:45:29.388Z,0
2018-04-06T00:46:29.385Z,0
2018-04-06T00:47:29.418Z,0
2018-04-06T00:48:29.300Z,0
2018-04-06T00:49:29.276Z,0
2018-04-06T00:50:29.351Z,0
2018-04-06T00:51:29.344Z,0
2018-04-06T00:52:29.282Z,0
2018-04-06T00:53:29.275Z,0
2018-04-06T00:54:29.343Z,0
2018-04-06T00:55:29.281Z,0
2018-04-06T00:56:29.406Z,0
2018-04-06T00:57:29.317Z,0
2018-04-06T00:58:29.312Z,0
2018-04-06T00:59:29.286Z,0
2018-04-06T01:00:29.317Z,0
2018-04-06T01:01:29.410Z,0
2018-04-06T01:02:29.377Z,0
2018-04-06T01:03:29.358Z,0
2018-04-06T01:04:29.474Z,0
2018-04-06T01:05:29.403Z,0
2018-04-06T01:06:29.295Z,0
2018-04-06T01:07:29.301Z,0
2018-04-06T01:08:29.416Z,0
2018-04-06T01:09:29.362Z,0
2018-04-06T01:10:29.314Z,0
2018-04-06T01:11:29.407Z,0
2018-04-06T01:12:29.316Z,0
2018-04-06T01:13:29.403Z,0
2018-04-06T01:14:29.417Z,0
2018-04-06T01:15:29.357Z,0
2018-04-06T01:16:29.296Z,0
2018-04-06T01:17:29.403Z,0
2018-04-06T01:18:29.391Z,0
2018-04-06T01:19:29.411Z,0
2018-04-06T01:20:29.366Z,0
2018-04-06T01:21:29.323Z,0
2018-04-06T01:22:29.419Z,0
2018-04-06T01:23:29.365Z,0
2018-04-06T01:24:29.333Z,0
2018-04-06T01:25:29.422Z,0
2018-04-06T01:26:29.301Z,0
2018-04-06T01:27:29.393Z,0
2018-04-06T01:28:29.365Z,0
2018-04-06T01:29:29.367Z,0
2018-04-06T01:30:29.299Z,0
2018-04-06T01:31:29.333Z,0
2018-04-06T01:32:29.373Z,0
2018-04-06T01:33:29.369Z,0
2018-04-06T01:34:29.428Z,0
2018-04-06T01:35:29.448Z,0
2018-04-06T01:36:29.373Z,0
2018-04-06T01:37:29.378Z,0
2018-04-06T01:38:29.428Z,0
2018-04-06T01:39:29.400Z,0
2018-04-06T01:40:29.422Z,0
2018-04-06T01:41:29.336Z,0
2018-04-06T01:42:29.384Z,0
2018-04-06T01:43:29.430Z,0
2018-04-06T01:44:29.433Z,0
2018-04-06T01:45:29.344Z,0
2018-04-06T01:46:29.337Z,0
2018-04-06T01:47:29.348Z,0
2018-04-06T01:48:29.441Z,0
2018-04-06T01:49:29.317Z,0
2018-04-06T01:50:29.422Z,0
2018-04-06T01:51:29.319Z,0
2018-04-06T01:52:29.425Z,0
2018-04-06T01:53:29.437Z,0
2018-04-06T01:54:29.321Z,0
2018-04-06T01:55:29.351Z,0
2018-04-06T01:56:29.404Z,0
2018-04-06T01:57:29.431Z,0
2018-04-06T01:58:29.344Z,0
2018-04-06T01:59:29.441Z,0
2018-04-06T02:00:29.415Z,0
2018-04-06T02:01:29.446Z,0
2018-04-06T02:02:29.413Z,0
2018-04-06T02:03:29.355Z,0
2018-04-06T02:04:29.355Z,0
2018-04-06T02:05:29.414Z,0
2018-04-06T02:06:29.319Z,0
2018-04-06T02:07:29.416Z,0
2018-04-06T02:08:29.397Z,0
2018-04-06T02:09:29.330Z,0
2018-04-06T02:10:29.391Z,0
2018-04-06T02:11:29.356Z,0
2018-04-06T02:12:29.422Z,0
2018-04-06T02:13:29.399Z,0
2018-04-06T02:14:29.449Z,0
2018-04-06T02:15:29.396Z,0
2018-04-06T02:16:29.453Z,0
2018-04-06T02:17:29.451Z,0
2018-04-06T02:18:29.438Z,0
2018-04-06T02:19:29.453Z,0
2018-04-06T02:20:29.458Z,0
2018-04-06T02:21:29.454Z,0
2018-04-06T02:22:29.332Z,0
2018-04-06T02:23:29.455Z,0
2018-04-06T02:24:29.522Z,0
2018-04-06T02:25:29.429Z,0
2018-04-06T02:26:29.454Z,0
2018-04-06T02:27:29.363Z,0
2018-04-06T02:28:29.338Z,0
2018-04-06T02:29:29.403Z,0
2018-04-06T02:30:29.366Z,0
2018-04-06T02:31:29.432Z,0
2018-04-06T02:32:29.408Z,0
2018-04-06T02:33:29.350Z,0
2018-04-06T02:34:29.410Z,0
2018-04-06T02:35:29.410Z,0
2018-04-06T02:36:29.464Z,0
2018-04-06T02:37:29.437Z,0
2018-04-06T02:38:29.449Z,0
2018-04-06T02:39:29.458Z,0
2018-04-06T02:40:29.469Z,0
2018-04-06T02:41:29.372Z,0
2018-04-06T02:42:29.346Z,0
2018-04-06T02:43:29.412Z,0
2018-04-06T02:44:29.423Z,0
2018-04-06T02:45:29.438Z,0
2018-04-06T02:46:29.362Z,0
2018-04-06T02:47:29.463Z,0
2018-04-06T02:48:29.353Z,0
2018-04-06T02:49:29.386Z,0
2018-04-06T02:50:29.423Z,0
2018-04-06T02:51:29.469Z,0
2018-04-06T02:52:29.475Z,0
2018-04-06T02:53:29.475Z,0
2018-04-06T02:54:29.423Z,0
2018-04-06T02:55:29.359Z,0
2018-04-06T02:56:29.455Z,0
2018-04-06T02:57:29.385Z,0
2018-04-06T02:58:29.382Z,0
2018-04-06T02:59:29.384Z,0
2018-04-06T03:00:29.490Z,0
2018-04-06T03:01:29.478Z,0
2018-04-06T03:02:29.428Z,0
2018-04-06T03:03:29.448Z,0
2018-04-06T03:04:29.429Z,0
2018-04-06T03:05:29.470Z,0
2018-04-06T03:06:29.422Z,0
2018-04-06T03:07:29.484Z,0
2018-04-06T03:08:29.436Z,0
2018-04-06T03:09:29.482Z,0
2018-04-06T03:10:29.477Z,0
2018-04-06T03:11:29.484Z,0
2018-04-06T03:12:29.489Z,0
2018-04-06T03:13:29.395Z,0
2018-04-06T03:14:29.371Z,0
2018-04-06T03:15:29.470Z,0
2018-04-06T03:16:29.486Z,0
2018-04-06T03:17:29.496Z,0
2018-04-06T03:18:29.373Z,0
2018-04-06T03:19:29.435Z,0
2018-04-06T03:20:29.479Z,0
2018-04-06T03:21:29.491Z,0
2018-04-06T03:22:29.374Z,0
2018-04-06T03:23:29.492Z,0
2018-04-06T03:24:29.466Z,0
2018-04-06T03:25:29.491Z,0
2018-04-06T03:26:29.491Z,0
2018-04-06T03:27:29.378Z,0
2018-04-06T03:28:29.445Z,0
2018-04-06T03:29:29.487Z,0
2018-04-06T03:30:29.499Z,0
2018-04-06T03:31:29.497Z,0
2018-04-06T03:32:29.407Z,0
2018-04-06T03:33:29.380Z,0
2018-04-06T03:34:29.403Z,0
2018-04-06T03:35:29.412Z,0
2018-04-06T03:36:29.499Z,0
2018-04-06T03:37:29.506Z,0
2018-04-06T03:38:29.459Z,0
2018-04-06T03:39:29.383Z,0
2018-04-06T03:40:29.498Z,0
2018-04-06T03:41:29.474Z,0
2018-04-06T03:42:29.501Z,0
2018-04-06T03:43:29.452Z,0
2018-04-06T03:44:29.416Z,0
2018-04-06T03:45:29.416Z,0
2018-04-06T03:46:29.388Z,0
2018-04-06T03:47:29.508Z,0
2018-04-06T03:48:29.389Z,0
2018-04-06T03:49:29.421Z,0
2018-04-06T03:50:29.392Z,0
2018-04-06T03:51:29.514Z,0
2018-04-06T03:52:29.505Z,0
2018-04-06T03:53:29.493Z,0
2018-04-06T03:54:29.424Z,0
2018-04-06T03:55:29.516Z,0
2018-04-06T03:56:29.484Z,0
2018-04-06T03:57:29.484Z,0
2018-04-06T03:58:29.485Z,0
2018-04-06T03:59:29.394Z,0
2018-04-06T04:00:29.486Z,0
2018-04-06T04:01:29.405Z,0
2018-04-06T04:02:29.472Z,0
2018-04-06T04:03:29.428Z,0
2018-04-06T04:04:29.423Z,0
2018-04-06T04:05:29.400Z,0
2018-04-06T04:06:29.400Z,0
2018-04-06T04:07:29.438Z,0
2018-04-06T04:08:29.516Z,0
2018-04-06T04:09:29.512Z,0
2018-04-06T04:10:29.423Z,0
2018-04-06T04:11:29.525Z,0
2018-04-06T04:12:29.523Z,0
2018-04-06T04:13:29.438Z,0
2018-04-06T04:14:29.475Z,0
2018-04-06T04:15:29.466Z,0
2018-04-06T04:16:29.432Z,0
2018-04-06T04:17:29.402Z,0
2018-04-06T04:18:29.470Z,0
2018-04-06T04:19:29.568Z,0
2018-04-06T04:20:29.411Z,0
2018-04-06T04:21:29.431Z,0
2018-04-06T04:22:29.409Z,0
2018-04-06T04:23:29.438Z,0
2018-04-06T04:24:29.521Z,0
2018-04-06T04:25:29.501Z,0
2018-04-06T04:26:29.526Z,0
2018-04-06T04:27:29.439Z,0
2018-04-06T04:28:29.529Z,0
2018-04-06T04:29:29.504Z,0
2018-04-06T04:30:29.530Z,5
2018-04-06T04:31:29.541Z,5
2018-04-06T04:32:29.508Z,5
2018-04-06T04:33:29.530Z,5
2018-04-06T04:34:29.505Z,5
2018-04-06T04:35:29.421Z,11
2018-04-06T04:36:29.424Z,11
2018-04-06T04:37:29.488Z,11
2018-04-06T04:38:29.528Z,16
2018-04-06T04:39:29.490Z,16
2018-04-06T04:40:29.544Z,16
2018-04-06T04:41:29.530Z,22
2018-04-06T04:42:29.488Z,22
2018-04-06T04:43:29.450Z,22
2018-04-06T04:44:29.541Z,28
2018-04-06T04:45:29.540Z,28
2018-04-06T04:46:29.460Z,33
2018-04-06T04:47:29.458Z,33
2018-04-06T04:48:29.513Z,39
2018-04-06T04:49:29.519Z,39
2018-04-06T04:50:29.427Z,45
2018-04-06T04:51:29.542Z,50
2018-04-06T04:52:29.515Z,50
2018-04-06T04:53:29.496Z,56
2018-04-06T04:54:29.499Z,61
2018-04-06T04:55:29.495Z,67
2018-04-06T04:56:29.423Z,73
2018-04-06T04:57:29.437Z,78
2018-04-06T04:58:29.457Z,84
2018-04-06T04:59:29.518Z,84
2018-04-06T05:00:29.521Z,90
2018-04-06T05:01:29.522Z,95
2018-04-06T05:02:29.520Z,101
2018-04-06T05:03:29.488Z,101
2018-04-06T05:04:29.492Z,106
2018-04-06T05:05:29.524Z,112
2018-04-06T05:06:29.546Z,118
2018-04-06T05:07:29.494Z,123
2018-04-06T05:08:29.433Z,129
2018-04-06T05:09:29.555Z,135
2018-04-06T05:10:29.557Z,140
2018-04-06T05:11:29.497Z,146
2018-04-06T05:12:29.556Z,151
2018-04-06T05:13:29.430Z,157
2018-04-06T05:14:29.469Z,163
2018-04-06T05:15:29.528Z,163
2018-04-06T05:16:29.464Z,174
2018-04-06T05:17:29.439Z,180
2018-04-06T05:18:29.503Z,185
2018-04-06T05:19:29.436Z,191
2018-04-06T05:20:29.506Z,191
2018-04-06T05:21:29.554Z,196
2018-04-06T05:22:29.537Z,202
2018-04-06T05:23:29.436Z,208
2018-04-06T05:24:29.518Z,213
2018-04-06T05:25:29.555Z,219
2018-04-06T05:26:29.451Z,225
2018-04-06T05:27:29.444Z,230
2018-04-06T05:28:29.455Z,236
2018-04-06T05:29:29.525Z,241
2018-04-06T05:30:29.535Z,253
2018-04-06T05:31:29.506Z,253
2018-04-06T05:32:29.447Z,253
2018-04-06T05:33:29.450Z,258
2018-04-06T05:34:29.524Z,264
2018-04-06T05:35:29.565Z,270
2018-04-06T05:36:29.514Z,275
2018-04-06T05:37:29.449Z,275
2018-04-06T05:38:29.572Z,281
2018-04-06T05:39:29.525Z,286
2018-04-06T05:40:29.548Z,292
2018-04-06T05:41:29.485Z,292
2018-04-06T05:42:29.482Z,298
2018-04-06T05:43:29.509Z,309
2018-04-06T05:44:29.573Z,315
2018-04-06T05:45:29.453Z,315
2018-04-06T05:46:29.491Z,320
2018-04-06T05:47:29.456Z,320
2018-04-06T05:48:29.548Z,326
2018-04-06T05:49:29.457Z,337
2018-04-06T05:50:29.521Z,354
2018-04-06T05:51:29.578Z,461
2018-04-06T05:52:29.525Z,646
2018-04-06T05:53:29.492Z,686
2018-04-06T05:54:29.588Z,697
2018-04-06T05:55:29.572Z,708
2018-04-06T05:56:29.494Z,725
2018-04-06T05:57:29.584Z,736
2018-04-06T05:58:29.462Z,753
2018-04-06T05:59:29.561Z,776
2018-04-06T06:00:29.536Z,793
2018-04-06T06:01:29.535Z,804
2018-04-06T06:02:29.527Z,815
2018-04-06T06:03:29.473Z,821
2018-04-06T06:04:29.500Z,838
2018-04-06T06:05:29.590Z,871
2018-04-06T06:06:29.533Z,877
2018-04-06T06:07:29.499Z,905
2018-04-06T06:08:29.471Z,933
2018-04-06T06:09:29.583Z,900
2018-04-06T06:10:29.497Z,849
2018-04-06T06:11:29.532Z,950
2018-04-06T06:12:29.479Z,956
2018-04-06T06:13:29.570Z,978
2018-04-06T06:14:29.586Z,995
2018-04-06T06:15:29.566Z,1035
2018-04-06T06:16:29.563Z,1029
2018-04-06T06:17:29.503Z,1063
2018-04-06T06:18:29.501Z,1085
2018-04-06T06:19:29.473Z,1113
2018-04-06T06:20:29.484Z,1226
2018-04-06T06:21:29.540Z,1141
2018-04-06T06:22:29.510Z,1074
2018-04-06T06:23:29.510Z,1170
2018-04-06T06:24:29.537Z,1046
2018-04-06T06:25:29.484Z,1141
2018-04-06T06:26:29.546Z,1153
2018-04-06T06:27:29.509Z,2131
2018-04-06T06:28:29.540Z,1181
2018-04-06T06:29:29.573Z,1085
2018-04-06T06:30:29.575Z,1203
2018-04-06T06:31:29.486Z,1158
2018-04-06T06:32:29.541Z,1147
2018-04-06T06:33:29.606Z,1136
2018-04-06T06:34:29.607Z,1125
2018-04-06T06:35:29.486Z,1141
2018-04-06T06:36:29.578Z,1153
2018-04-06T06:37:29.519Z,1175
2018-04-06T06:38:29.547Z,1175
2018-04-06T06:39:29.643Z,1181
2018-04-06T06:40:29.554Z,1175
2018-04-06T06:42:29.486Z,1186
2018-04-06T06:43:29.524Z,1198
2018-04-06T06:44:29.551Z,1220
2018-04-06T06:45:29.491Z,1243
2018-04-06T06:46:29.564Z,1271
2018-04-06T06:47:29.493Z,1316
2018-04-06T06:48:29.588Z,1383
2018-04-06T06:49:29.494Z,1507
2018-04-06T06:50:29.504Z,1625
2018-04-06T06:51:29.586Z,1738
2018-04-06T06:52:29.609Z,1856
2018-04-06T06:53:29.588Z,1951
2018-04-06T06:54:29.587Z,2013
2018-04-06T06:55:29.616Z,2041
2018-04-06T06:56:29.562Z,2058
2018-04-06T06:57:29.505Z,2092
2018-04-06T06:58:29.500Z,2154
2018-04-06T06:59:29.618Z,2205
2018-04-06T07:00:29.509Z,2356
2018-04-06T07:01:29.562Z,2154
2018-04-06T07:02:29.511Z,2019
2018-04-06T07:03:29.533Z,2041
2018-04-06T07:04:29.594Z,2047
2018-04-06T07:05:29.537Z,2070
2018-04-06T07:06:29.590Z,2092
2018-04-06T07:07:29.580Z,2086
2018-04-06T07:08:29.595Z,2115
2018-04-06T07:09:29.597Z,2154
2018-04-06T07:10:29.576Z,2210
2018-04-06T07:11:29.601Z,2221
2018-04-06T07:12:29.575Z,2244
2018-04-06T07:13:29.540Z,2283
2018-04-06T07:14:29.506Z,2300
2018-04-06T07:15:29.515Z,2250
2018-04-06T07:16:29.517Z,2176
2018-04-06T07:17:29.537Z,2086
2018-04-06T07:18:29.624Z,1991
2018-04-06T07:19:29.512Z,1878
2018-04-06T07:20:29.521Z,1738
2018-04-06T07:21:29.512Z,1591
2018-04-06T07:22:29.576Z,1485
2018-04-06T07:23:29.587Z,1417
2018-04-06T07:24:29.527Z,1383
2018-04-06T07:25:29.633Z,1372
2018-04-06T07:26:29.634Z,1355
2018-04-06T07:27:29.579Z,1361
2018-04-06T07:28:29.611Z,1355
2018-04-06T07:29:29.588Z,1361
2018-04-06T07:30:29.527Z,1423
2018-04-06T07:31:29.608Z,2070
2018-04-06T07:32:29.532Z,2806
2018-04-06T07:33:29.557Z,2441
2018-04-06T07:34:29.613Z,2441
2018-04-06T07:35:29.640Z,2469
2018-04-06T07:36:29.634Z,2491
2018-04-06T07:37:29.617Z,2536
2018-04-06T07:38:29.592Z,2565
2018-04-06T07:39:29.533Z,2604
2018-04-06T07:40:29.585Z,2643
2018-04-06T07:41:29.615Z,2655
2018-04-06T07:42:29.527Z,2671
2018-04-06T07:43:29.650Z,2694
2018-04-06T07:44:29.588Z,2700
2018-04-06T07:45:29.639Z,2700
2018-04-06T07:46:29.589Z,2711
2018-04-06T07:47:29.528Z,2711
2018-04-06T07:48:29.525Z,2711
2018-04-06T07:49:29.603Z,2728
2018-04-06T07:50:29.620Z,2733
2018-04-06T07:51:29.594Z,2728
2018-04-06T07:52:29.562Z,2728
2018-04-06T07:53:29.565Z,2722
2018-04-06T07:54:29.561Z,2716
2018-04-06T07:55:29.547Z,2711
2018-04-06T07:56:29.626Z,2716
2018-04-06T07:57:29.536Z,2722
2018-04-06T07:58:29.609Z,2750
2018-04-06T07:59:29.574Z,2778
2018-04-06T08:00:29.657Z,2801
2018-04-06T08:01:29.535Z,2840
2018-04-06T08:02:29.576Z,2851
2018-04-06T08:03:29.546Z,2874
2018-04-06T08:04:29.608Z,2902
2018-04-06T08:05:29.638Z,2925
2018-04-06T08:06:29.547Z,2930
2018-04-06T08:07:29.574Z,2953
2018-04-06T08:08:29.637Z,2998
2018-04-06T08:09:29.664Z,3031
2018-04-06T08:10:29.541Z,3043
2018-04-06T08:11:29.617Z,3076
2018-04-06T08:12:29.605Z,3105
2018-04-06T08:13:29.623Z,3144
2018-04-06T08:14:29.554Z,3155
2018-04-06T08:15:29.577Z,3144
2018-04-06T08:16:29.546Z,3138
2018-04-06T08:17:29.572Z,3121
2018-04-06T08:18:29.620Z,3093
2018-04-06T08:19:29.637Z,3088
2018-04-06T08:20:29.584Z,3093
2018-04-06T08:21:29.622Z,3127
2018-04-06T08:22:29.558Z,3161
2018-04-06T08:23:29.667Z,3161
2018-04-06T08:24:29.583Z,3155
2018-04-06T08:25:29.583Z,3161
2018-04-06T08:26:29.711Z,3195
2018-04-06T08:27:29.642Z,3240
2018-04-06T08:28:29.582Z,3285
2018-04-06T08:29:29.638Z,3335
2018-04-06T08:30:29.551Z,3391
2018-04-06T08:31:29.677Z,3436
2018-04-06T08:32:29.553Z,3476
2018-04-06T08:33:29.592Z,3498
2018-04-06T08:34:29.678Z,3504
2018-04-06T08:35:29.568Z,3481
2018-04-06T08:36:29.627Z,3470
2018-04-06T08:37:29.655Z,3487
2018-04-06T08:38:29.623Z,3493
2018-04-06T08:39:29.680Z,3532
2018-04-06T08:40:29.558Z,3515
2018-04-06T08:41:29.622Z,3555
2018-04-06T08:42:29.677Z,3600
2018-04-06T08:43:29.637Z,3633
2018-04-06T08:44:29.682Z,3650
2018-04-06T08:45:29.657Z,3622
2018-04-06T08:46:29.686Z,3600
2018-04-06T08:47:29.589Z,3588
2018-04-06T08:48:29.590Z,3622
2018-04-06T08:49:29.680Z,3650
2018-04-06T08:50:29.593Z,3701
2018-04-06T08:51:29.604Z,3740
2018-04-06T08:52:29.628Z,3791
2018-04-06T08:53:29.661Z,3825
2018-04-06T08:54:29.629Z,3830
2018-04-06T08:55:29.684Z,3825
2018-04-06T08:56:29.632Z,3763
2018-04-06T08:57:29.686Z,3785
2018-04-06T08:58:29.603Z,3819
2018-04-06T08:59:29.657Z,3836
2018-04-06T09:00:29.599Z,3825
2018-04-06T09:01:29.638Z,3796
2018-04-06T09:02:29.610Z,3780
2018-04-06T09:03:29.668Z,3757
2018-04-06T09:04:29.696Z,3729
2018-04-06T09:05:29.697Z,3751
2018-04-06T09:06:29.578Z,3768
2018-04-06T09:07:29.652Z,3836
2018-04-06T09:08:29.701Z,3847
2018-04-06T09:09:29.603Z,3875
2018-04-06T09:10:29.648Z,3886
2018-04-06T09:11:29.583Z,3898
2018-04-06T09:12:29.697Z,3920
2018-04-06T09:13:29.612Z,3931
2018-04-06T09:14:29.613Z,3909
2018-04-06T09:15:29.620Z,3898
2018-04-06T09:16:29.646Z,3909
2018-04-06T09:17:29.586Z,3903
2018-04-06T09:18:29.702Z,3898
2018-04-06T09:19:29.646Z,3960
2018-04-06T09:20:29.654Z,4033
2018-04-06T09:21:29.706Z,4100
2018-04-06T09:22:29.590Z,4134
2018-04-06T09:23:29.650Z,4185
2018-04-06T09:24:29.619Z,4213
2018-04-06T09:25:29.657Z,4196
2018-04-06T09:26:29.709Z,4123
2018-04-06T09:27:29.711Z,4061
2018-04-06T09:28:29.599Z,4010
2018-04-06T09:29:29.626Z,3982
2018-04-06T09:30:29.687Z,3982
2018-04-06T09:31:29.717Z,4016
2018-04-06T09:32:29.714Z,4089
2018-04-06T09:33:29.628Z,4083
2018-04-06T09:34:29.714Z,4061
2018-04-06T09:35:29.718Z,4038
2018-04-06T09:36:29.624Z,4061
2018-04-06T09:37:29.624Z,4100
2018-04-06T09:38:29.604Z,4083
2018-04-06T09:39:29.631Z,4134
2018-04-06T09:40:29.610Z,4201
2018-04-06T09:41:29.662Z,4218
2018-04-06T09:42:29.670Z,4258
2018-04-06T09:43:29.694Z,4258
2018-04-06T09:44:29.726Z,4297
2018-04-06T09:45:29.632Z,4303
2018-04-06T09:46:29.697Z,4325
2018-04-06T09:47:29.718Z,4303
2018-04-06T09:48:29.630Z,4275
2018-04-06T09:49:29.628Z,4286
2018-04-06T09:50:29.725Z,4342
2018-04-06T09:51:29.667Z,4342
2018-04-06T09:52:29.652Z,4331
2018-04-06T09:53:29.637Z,4286
2018-04-06T09:54:29.607Z,4252
2018-04-06T09:55:29.702Z,4269
2018-04-06T09:56:29.731Z,4303
2018-04-06T09:57:29.669Z,4308
2018-04-06T09:58:29.721Z,4336
2018-04-06T09:59:29.680Z,4342
2018-04-06T10:00:29.613Z,4404
2018-04-06T10:01:29.726Z,4415
2018-04-06T10:02:29.705Z,4365
2018-04-06T10:03:29.684Z,4286
2018-04-06T10:04:29.639Z,4201
2018-04-06T10:05:29.647Z,4106
2018-04-06T10:06:29.690Z,4055
2018-04-06T10:07:29.614Z,4027
2018-04-06T10:08:29.639Z,3982
2018-04-06T10:09:29.620Z,3948
2018-04-06T10:10:29.708Z,3988
2018-04-06T10:11:29.739Z,4044
2018-04-06T10:12:29.737Z,4134
2018-04-06T10:13:29.715Z,4185
2018-04-06T10:14:29.630Z,4269
2018-04-06T10:15:29.617Z,4325
2018-04-06T10:16:29.715Z,4393
2018-04-06T10:17:29.629Z,4421
2018-04-06T10:18:29.692Z,4455
2018-04-06T10:19:29.683Z,4494
2018-04-06T10:20:29.693Z,4573
2018-04-06T10:21:29.721Z,4612
2018-04-06T10:22:29.745Z,4657
2018-04-06T10:23:29.743Z,4668
2018-04-06T10:24:29.720Z,4640
2018-04-06T10:25:29.743Z,4601
2018-04-06T10:26:29.700Z,4556
2018-04-06T10:27:29.742Z,4545
2018-04-06T10:28:29.704Z,4516
2018-04-06T10:29:29.659Z,4471
2018-04-06T10:30:29.653Z,4426
2018-04-06T10:31:29.750Z,4410
2018-04-06T10:32:29.747Z,4438
2018-04-06T10:33:29.666Z,4466
2018-04-06T10:34:29.629Z,4528
2018-04-06T10:35:29.696Z,4584
2018-04-06T10:36:29.634Z,4595
2018-04-06T10:37:29.757Z,4556
2018-04-06T10:38:29.701Z,4528
2018-04-06T10:39:29.701Z,4494
2018-04-06T10:40:29.804Z,4505
2018-04-06T10:41:29.639Z,4488
2018-04-06T10:42:29.756Z,4516
2018-04-06T10:43:29.710Z,4561
2018-04-06T10:44:29.669Z,4640
2018-04-06T10:45:29.730Z,4730
2018-04-06T10:46:29.737Z,4753
2018-04-06T10:47:29.669Z,4741
2018-04-06T10:48:29.760Z,4730
2018-04-06T10:49:29.663Z,4691
2018-04-06T10:50:29.644Z,4612
2018-04-06T10:51:29.763Z,4584
2018-04-06T10:52:29.816Z,4629
2018-04-06T10:53:29.713Z,4685
2018-04-06T10:54:29.653Z,4713
2018-04-06T10:55:29.649Z,4713
2018-04-06T10:56:29.680Z,4696
2018-04-06T10:57:29.674Z,4713
2018-04-06T10:58:29.648Z,4736
2018-04-06T10:59:29.648Z,4674
2018-04-06T11:00:29.720Z,4578
2018-04-06T11:01:29.715Z,4505
2018-04-06T11:02:29.651Z,4522
2018-04-06T11:03:29.766Z,4606
2018-04-06T11:04:29.769Z,4657
2018-04-06T11:05:29.720Z,4680
2018-04-06T11:06:29.716Z,4691
2018-04-06T11:07:29.748Z,4725
2018-04-06T11:08:29.655Z,4758
2018-04-06T11:09:29.683Z,4747
2018-04-06T11:10:29.774Z,4730
2018-04-06T11:11:29.782Z,4708
2018-04-06T11:12:29.689Z,4696
2018-04-06T11:13:29.778Z,4696
2018-04-06T11:14:29.687Z,4708
2018-04-06T11:15:29.779Z,4640
2018-04-06T11:16:29.659Z,4550
2018-04-06T11:17:29.685Z,4550
2018-04-06T11:18:29.658Z,4651
2018-04-06T11:19:29.688Z,4725
2018-04-06T11:20:29.666Z,4770
2018-04-06T11:21:29.774Z,4702
2018-04-06T11:22:29.756Z,4584
2018-04-06T11:23:29.705Z,4415
2018-04-06T11:24:29.780Z,4235
2018-04-06T11:25:29.671Z,4106
2018-04-06T11:26:29.710Z,4078
2018-04-06T11:27:29.664Z,4151
2018-04-06T11:28:29.695Z,4235
2018-04-06T11:29:29.725Z,4297
2018-04-06T11:30:29.781Z,4426
2018-04-06T11:31:29.757Z,4612
2018-04-06T11:32:29.705Z,4668
2018-04-06T11:33:29.731Z,4646
2018-04-06T11:34:29.788Z,4635
2018-04-06T11:35:29.734Z,4629
2018-04-06T11:36:29.783Z,4635
2018-04-06T11:37:29.706Z,4595
2018-04-06T11:38:29.671Z,4578
2018-04-06T11:39:29.768Z,4561
2018-04-06T11:40:29.800Z,4556
2018-04-06T11:41:29.729Z,4606
2018-04-06T11:42:29.736Z,4680
2018-04-06T11:43:29.787Z,4713
2018-04-06T11:44:29.739Z,4713
2018-04-06T11:45:29.705Z,4663
2018-04-06T11:46:29.798Z,4629
2018-04-06T11:47:29.770Z,4640
2018-04-06T11:48:29.774Z,4640
2018-04-06T11:49:29.680Z,4590
2018-04-06T11:50:29.711Z,4550
2018-04-06T11:51:29.804Z,4573
2018-04-06T11:52:29.753Z,4601
2018-04-06T11:53:29.795Z,4606
2018-04-06T11:54:29.690Z,4618
2018-04-06T11:55:29.714Z,4601
2018-04-06T11:56:29.685Z,4590
2018-04-06T11:57:29.754Z,4567
2018-04-06T11:58:29.775Z,4550
2018-04-06T11:59:29.709Z,4522
2018-04-06T12:00:29.755Z,4505
2018-04-06T12:01:29.746Z,4483
2018-04-06T12:02:29.753Z,4443
2018-04-06T12:03:29.798Z,4443
2018-04-06T12:04:29.701Z,4477
2018-04-06T12:05:29.720Z,4539
2018-04-06T12:06:29.776Z,4584
2018-04-06T12:07:29.803Z,4578
2018-04-06T12:08:29.804Z,4573
2018-04-06T12:09:29.778Z,4528
2018-04-06T12:10:29.726Z,4494
2018-04-06T12:11:29.716Z,4483
2018-04-06T12:12:29.760Z,4488
2018-04-06T12:13:29.785Z,4483
2018-04-06T12:14:29.758Z,4455
2018-04-06T12:15:29.696Z,4460
2018-04-06T12:16:29.721Z,4449
2018-04-06T12:17:29.808Z,4426
2018-04-06T12:18:29.729Z,4415
2018-04-06T12:19:29.818Z,4415
2018-04-06T12:20:29.728Z,4410
2018-04-06T12:21:29.812Z,4398
2018-04-06T12:22:29.822Z,4387
2018-04-06T12:23:29.818Z,4376
2018-04-06T12:24:29.711Z,4398
2018-04-06T12:25:29.768Z,4432
2018-04-06T12:26:29.709Z,4432
2018-04-06T12:27:29.695Z,4460
2018-04-06T12:28:29.700Z,4494
2018-04-06T12:29:29.733Z,4494
2018-04-06T12:30:29.770Z,4500
2018-04-06T12:31:29.779Z,4483
2018-04-06T12:32:29.769Z,4432
2018-04-06T12:33:29.820Z,4398
2018-04-06T12:34:29.736Z,4370
2018-04-06T12:35:29.819Z,4348
2018-04-06T12:36:29.737Z,4308
2018-04-06T12:37:29.775Z,4241
2018-04-06T12:38:29.767Z,4230
2018-04-06T12:39:29.739Z,4213
2018-04-06T12:40:29.739Z,4201
2018-04-06T12:41:29.768Z,4162
2018-04-06T12:42:29.719Z,4162
2018-04-06T12:43:29.824Z,4173
2018-04-06T12:44:29.734Z,4162
2018-04-06T12:45:29.773Z,4168
2018-04-06T12:46:29.832Z,4241
2018-04-06T12:47:29.780Z,4258
2018-04-06T12:48:29.723Z,4263
2018-04-06T12:49:29.835Z,4230
2018-04-06T12:50:29.717Z,4072
2018-04-06T12:51:29.810Z,4016
2018-04-06T12:52:29.829Z,3965
2018-04-06T12:53:29.742Z,3976
2018-04-06T12:54:29.803Z,4010
2018-04-06T12:55:29.751Z,3993
2018-04-06T12:56:29.834Z,4027
2018-04-06T12:57:29.794Z,4072
2018-04-06T12:58:29.832Z,4050
2018-04-06T12:59:29.718Z,4156
2018-04-06T13:00:29.725Z,4168
2018-04-06T13:01:29.726Z,4179
2018-04-06T13:02:29.843Z,4140
2018-04-06T13:03:29.819Z,4066
2018-04-06T13:04:29.732Z,4016
2018-04-06T13:05:29.862Z,3982
2018-04-06T13:06:29.841Z,3982
2018-04-06T13:07:29.751Z,4010
2018-04-06T13:08:29.753Z,3965
2018-04-06T13:09:29.798Z,3886
2018-04-06T13:10:29.875Z,3830
2018-04-06T13:11:29.760Z,3808
2018-04-06T13:12:29.847Z,3796
2018-04-06T13:13:29.794Z,3791
2018-04-06T13:14:29.846Z,3774
2018-04-06T13:15:29.725Z,3729
2018-04-06T13:16:29.762Z,3690
2018-04-06T13:17:29.827Z,3695
2018-04-06T13:18:29.826Z,3684
2018-04-06T13:19:29.778Z,3678
2018-04-06T13:20:29.780Z,3645
2018-04-06T13:21:29.765Z,3611
2018-04-06T13:22:29.796Z,3555
2018-04-06T13:23:29.801Z,3566
2018-04-06T13:24:29.830Z,3571
2018-04-06T13:25:29.849Z,3616
2018-04-06T13:26:29.856Z,3622
2018-04-06T13:27:29.747Z,3661
2018-04-06T13:28:29.834Z,3656
2018-04-06T13:29:29.862Z,3633
2018-04-06T13:30:29.839Z,3611
2018-04-06T13:31:29.773Z,3633
2018-04-06T13:32:29.749Z,3656
2018-04-06T13:33:29.862Z,3661
2018-04-06T13:34:29.775Z,3616
2018-04-06T13:35:29.769Z,3611
2018-04-06T13:36:29.737Z,3600
2018-04-06T13:37:29.866Z,3594
2018-04-06T13:38:29.837Z,3577
2018-04-06T13:39:29.739Z,3600
2018-04-06T13:40:29.808Z,3583
2018-04-06T13:41:29.756Z,3555
2018-04-06T13:42:29.777Z,3493
2018-04-06T13:43:29.749Z,3442
2018-04-06T13:44:29.870Z,3391
2018-04-06T13:45:29.873Z,3391
2018-04-06T13:46:29.871Z,3403
2018-04-06T13:47:29.785Z,3375
2018-04-06T13:48:29.894Z,3369
2018-04-06T13:49:29.873Z,3363
2018-04-06T13:50:29.762Z,3330
2018-04-06T13:51:29.753Z,3313